Аэропорт: Пулково. Санкт-Петербург

ICAO: ULLI

METAR:
2018/07/16 19:30
ULLI 161930Z 00000MPS CAVOK 26/12 Q1014 R10L/090060 NOSIG
METAR:
2018/07/16 18:21
TAF TAF ULLI 161700Z 1618/1718 05003MPS 9999 SCT030 
      TEMPO 1621/1704 3100 BR MIFG 
      BECMG 1706/1708 05005G11MPS